Time;durP1;ratioP1;P1;durP2;ratioP2;P2;SDS_P1;SDS_P2;PMS_P1;PMS_P2;Temp;Humidity;BMP_temperature;BMP_pressure;BME280_temperature;BME280_humidity;BME280_pressure;Samples;Min_cycle;Max_cycle;Signal;HPM_P1;HPM_P2
2022/06/12 00:00:46;;;;;;;4.25;2.70;;;17.30;99.90;;;;;;5074034;28;20229;-61
2022/06/12 00:03:16;;;;;;;4.47;2.85;;;17.30;99.90;;;;;;5073954;28;20201;-61
2022/06/12 00:05:45;;;;;;;3.83;2.67;;;17.20;99.90;;;;;;5073667;28;20290;-61
2022/06/12 00:08:14;;;;;;;3.92;2.55;;;17.20;99.90;;;;;;5075500;28;20209;-60
2022/06/12 00:10:43;;;;;;;3.90;3.10;;;17.10;99.90;;;;;;5074098;28;20201;-61
2022/06/12 00:13:12;;;;;;;4.53;2.75;;;17.10;99.90;;;;;;5074069;28;20209;-61
2022/06/12 00:15:40;;;;;;;3.25;2.95;;;17.10;99.90;;;;;;5074217;28;20758;-61
2022/06/12 00:18:07;;;;;;;4.30;2.45;;;17.10;99.90;;;;;;5074112;28;20205;-61
2022/06/12 00:20:34;;;;;;;5.10;2.58;;;17.00;99.90;;;;;;5074022;28;20282;-61
2022/06/12 00:23:01;;;;;;;5.22;2.65;;;17.00;99.90;;;;;;5074145;28;20574;-60
2022/06/12 00:25:31;;;;;;;4.72;2.83;;;17.00;99.90;;;;;;5074120;28;20661;-60
2022/06/12 00:27:58;;;;;;;4.90;2.80;;;17.00;99.90;;;;;;5073809;28;20205;-60
2022/06/12 00:30:26;;;;;;;4.47;2.95;;;17.00;99.90;;;;;;5073483;28;20205;-61
2022/06/12 00:32:54;;;;;;;4.63;2.63;;;17.00;99.90;;;;;;5073724;28;20208;-61
2022/06/12 00:35:24;;;;;;;6.43;3.00;;;16.90;99.90;;;;;;5073256;28;20209;-61
2022/06/12 00:37:51;;;;;;;6.00;3.10;;;16.90;99.90;;;;;;5073545;28;20738;-61
2022/06/12 00:40:18;;;;;;;4.13;2.83;;;16.90;99.90;;;;;;5073245;28;20488;-60
2022/06/12 00:42:49;;;;;;;4.38;2.80;;;16.90;99.90;;;;;;5072874;28;20205;-60
2022/06/12 00:45:41;;;;;;;3.58;2.85;;;16.80;99.90;;;;;;5072786;28;20567;-60
2022/06/12 00:48:10;;;;;;;5.90;2.88;;;16.80;99.90;;;;;;5073058;28;20216;-61
2022/06/12 00:50:41;;;;;;;4.18;2.78;;;16.80;99.90;;;;;;5072934;28;20684;-61
2022/06/12 00:53:12;;;;;;;6.30;2.92;;;16.80;99.90;;;;;;5072500;28;20742;-60
2022/06/12 00:55:43;;;;;;;4.88;3.00;;;16.70;99.90;;;;;;5072789;28;20346;-61
2022/06/12 00:58:13;;;;;;;5.93;3.00;;;16.70;99.90;;;;;;5072968;28;20239;-64
2022/06/12 01:00:41;;;;;;;3.92;2.60;;;16.70;99.90;;;;;;5072855;28;20761;-60
2022/06/12 01:03:09;;;;;;;6.05;2.70;;;16.60;99.90;;;;;;5072494;28;20620;-60
2022/06/12 01:08:22;;;;;;;4.50;2.70;;;16.70;99.90;;;;;;5073652;28;20243;-60
2022/06/12 01:10:51;;;;;;;4.30;2.65;;;16.70;99.90;;;;;;5072952;28;20200;-60
2022/06/12 01:13:23;;;;;;;4.43;3.00;;;16.70;99.90;;;;;;5072742;28;20262;-61
2022/06/12 01:15:53;;;;;;;3.20;2.53;;;16.60;99.90;;;;;;5072661;28;20243;-60
2022/06/12 01:18:23;;;;;;;5.45;2.97;;;16.60;99.90;;;;;;5072784;28;20208;-60
2022/06/12 01:20:59;;;;;;;5.03;3.00;;;16.60;99.90;;;;;;5072765;28;20228;-60
2022/06/12 01:24:01;;;;;;;5.27;3.10;;;16.60;99.90;;;;;;5073846;28;20219;-60
2022/06/12 01:27:04;;;;;;;6.60;2.83;;;16.60;99.90;;;;;;5063918;28;20251;-59
2022/06/12 01:29:37;;;;;;;3.73;2.60;;;16.50;99.90;;;;;;5075208;28;20571;-60
2022/06/12 01:32:09;;;;;;;4.85;2.72;;;16.50;99.90;;;;;;5075579;28;20204;-60
2022/06/12 01:34:45;;;;;;;3.58;2.42;;;16.40;99.90;;;;;;5075300;28;20212;-60
2022/06/12 01:37:23;;;;;;;5.17;3.33;;;16.40;99.90;;;;;;5075603;28;20274;-61
2022/06/12 01:40:00;;;;;;;3.63;3.13;;;16.40;99.90;;;;;;5075158;28;20258;-60
2022/06/12 01:42:34;;;;;;;6.30;3.40;;;16.40;99.90;;;;;;5074844;28;20204;-61
2022/06/12 01:45:12;;;;;;;5.60;2.97;;;16.30;99.90;;;;;;5075125;28;20612;-60
2022/06/12 01:47:48;;;;;;;5.43;2.90;;;16.30;99.90;;;;;;5074717;28;20208;-60
2022/06/12 01:50:19;;;;;;;5.33;2.70;;;16.30;99.90;;;;;;5074738;28;20205;-60
2022/06/12 01:52:58;;;;;;;5.73;2.90;;;16.30;99.90;;;;;;5074558;28;20216;-60
2022/06/12 01:55:32;;;;;;;3.30;2.87;;;16.30;99.90;;;;;;5075554;28;20281;-60
2022/06/12 01:58:06;;;;;;;4.50;3.03;;;16.20;99.90;;;;;;5079010;28;20315;-59
2022/06/12 02:00:35;;;;;;;6.30;3.00;;;16.20;99.90;;;;;;5078726;28;20221;-60
2022/06/12 02:03:07;;;;;;;6.00;2.75;;;16.20;99.90;;;;;;5078721;28;20565;-59
2022/06/12 02:05:40;;;;;;;5.57;3.43;;;16.20;99.90;;;;;;5079044;28;20252;-59
2022/06/12 02:08:14;;;;;;;5.20;3.07;;;16.20;99.90;;;;;;5078995;28;20282;-59
2022/06/12 02:10:45;;;;;;;6.67;3.60;;;16.20;99.90;;;;;;5077493;28;20204;-59
2022/06/12 02:13:15;;;;;;;4.03;3.03;;;16.10;99.90;;;;;;5077813;28;20243;-59
2022/06/12 02:15:55;;;;;;;4.97;2.57;;;16.10;99.90;;;;;;5079090;28;20223;-60
2022/06/12 02:18:29;;;;;;;5.45;3.00;;;16.10;99.90;;;;;;5079470;28;20589;-59
2022/06/12 02:21:08;;;;;;;6.57;3.13;;;16.20;99.90;;;;;;5079527;28;20231;-59
2022/06/12 02:23:44;;;;;;;5.20;2.88;;;16.20;99.90;;;;;;5079331;28;20207;-59
2022/06/12 02:26:15;;;;;;;5.33;3.27;;;16.20;99.90;;;;;;5078857;28;20224;-60
2022/06/12 02:28:46;;;;;;;4.20;3.00;;;16.30;99.90;;;;;;5075776;28;20205;-59
2022/06/12 02:31:20;;;;;;;3.60;3.03;;;16.40;99.90;;;;;;5075374;28;20201;-59
2022/06/12 02:33:51;;;;;;;3.37;2.70;;;16.50;99.90;;;;;;5075011;28;20696;-60
2022/06/12 02:36:21;;;;;;;4.17;3.00;;;16.50;99.90;;;;;;5075033;28;20240;-59
2022/06/12 02:38:56;;;;;;;3.97;2.70;;;16.60;99.90;;;;;;5075799;28;20209;-59
2022/06/12 02:41:28;;;;;;;4.10;3.00;;;16.60;99.90;;;;;;5075105;28;20220;-60
2022/06/12 02:43:58;;;;;;;5.13;3.00;;;16.50;99.90;;;;;;5074907;28;20216;-60
2022/06/12 02:46:32;;;;;;;4.43;2.90;;;16.50;99.90;;;;;;5075059;28;20229;-60
2022/06/12 02:48:59;;;;;;;6.40;3.13;;;16.40;99.90;;;;;;5075125;28;20213;-60
2022/06/12 02:51:34;;;;;;;7.87;3.10;;;16.40;99.90;;;;;;5075006;28;20236;-60
2022/06/12 02:54:10;;;;;;;3.20;2.77;;;16.40;99.90;;;;;;5075216;28;20207;-60
2022/06/12 02:56:44;;;;;;;7.20;3.37;;;16.40;99.90;;;;;;5075049;28;20232;-60
2022/06/12 02:59:24;;;;;;;5.43;3.10;;;16.30;99.90;;;;;;5075604;28;20561;-59
2022/06/12 03:01:59;;;;;;;4.97;3.00;;;16.30;99.90;;;;;;5075847;28;20224;-60
2022/06/12 03:04:32;;;;;;;4.60;3.13;;;16.40;99.90;;;;;;5075142;28;20579;-60
2022/06/12 03:07:00;;;;;;;3.60;3.30;;;16.30;99.90;;;;;;5073414;28;20271;-60
2022/06/12 03:09:26;;;;;;;3.80;2.95;;;16.30;99.90;;;;;;5075491;28;20212;-60
2022/06/12 03:11:54;;;;;;;4.65;2.70;;;16.30;99.90;;;;;;5075752;28;20220;-60
2022/06/12 03:14:23;;;;;;;5.05;2.90;;;16.30;99.90;;;;;;5075756;28;20209;-60
2022/06/12 03:16:50;;;;;;;4.85;2.97;;;16.20;99.90;;;;;;5074992;28;20227;-60
2022/06/12 03:19:23;;;;;;;4.88;2.97;;;16.10;99.90;;;;;;5074719;28;20628;-59
2022/06/12 03:21:56;;;;;;;4.40;2.90;;;16.10;99.90;;;;;;5074691;28;20228;-60
2022/06/12 03:24:34;;;;;;;5.60;2.80;;;16.00;99.90;;;;;;5075365;28;20212;-60
2022/06/12 03:27:21;;;;;;;4.60;3.03;;;16.00;99.90;;;;;;5075052;28;20235;-60
2022/06/12 03:30:02;;;;;;;6.33;3.00;;;15.90;99.90;;;;;;5072656;28;20205;-60
2022/06/12 03:32:35;;;;;;;6.65;2.95;;;15.90;99.90;;;;;;5075191;28;20234;-60
2022/06/12 03:35:15;;;;;;;4.60;2.80;;;15.80;99.90;;;;;;5074629;28;20205;-60
2022/06/12 03:37:50;;;;;;;4.57;3.00;;;15.80;99.90;;;;;;5075477;28;20216;-60
2022/06/12 03:40:23;;;;;;;4.00;2.67;;;15.90;99.90;;;;;;5074969;28;20212;-60
2022/06/12 03:42:57;;;;;;;5.38;3.35;;;15.80;99.90;;;;;;5075020;28;20250;-60
2022/06/12 03:45:28;;;;;;;5.13;2.97;;;15.80;99.90;;;;;;5074637;28;20205;-60
2022/06/12 03:48:10;;;;;;;4.60;2.70;;;15.80;99.90;;;;;;5074396;28;20213;-60
2022/06/12 03:50:44;;;;;;;6.43;3.10;;;15.80;99.90;;;;;;5074412;28;20750;-60
2022/06/12 03:53:17;;;;;;;3.90;3.00;;;15.80;99.90;;;;;;5074515;28;20205;-60
2022/06/12 03:58:41;;;;;;;4.60;3.10;;;15.90;99.90;;;;;;5074333;28;20207;-60
2022/06/12 04:01:08;;;;;;;4.15;2.83;;;16.00;99.90;;;;;;5074332;28;20705;-60
2022/06/12 04:03:38;;;;;;;6.40;2.97;;;15.90;99.90;;;;;;5074887;28;20209;-60
2022/06/12 04:06:12;;;;;;;5.63;3.25;;;15.90;99.90;;;;;;5074926;28;20228;-60
2022/06/12 04:08:42;;;;;;;6.50;3.30;;;16.00;99.90;;;;;;5075906;28;20647;-60
2022/06/12 04:11:10;;;;;;;6.50;2.80;;;16.10;99.90;;;;;;5074776;28;20201;-60
2022/06/12 04:13:38;;;;;;;4.57;3.17;;;16.30;99.90;;;;;;5074450;28;20205;-60
2022/06/12 04:16:21;;;;;;;4.53;3.00;;;16.30;99.90;;;;;;5074950;28;20225;-59
2022/06/12 04:18:48;;;;;;;4.28;3.10;;;16.40;99.90;;;;;;5074667;28;20209;-60
2022/06/12 04:21:25;;;;;;;3.67;2.70;;;16.50;99.90;;;;;;5074437;28;20228;-60
2022/06/12 04:23:59;;;;;;;11.23;3.80;;;16.60;99.90;;;;;;5074651;28;20212;-60
2022/06/12 04:26:33;;;;;;;3.83;3.10;;;16.60;99.90;;;;;;5073928;28;20236;-60
2022/06/12 04:29:03;;;;;;;4.03;3.05;;;16.70;99.90;;;;;;5074237;28;20216;-60
2022/06/12 04:31:32;;;;;;;2.97;2.53;;;16.70;99.90;;;;;;5075556;28;20205;-60
2022/06/12 04:34:13;;;;;;;6.10;2.83;;;16.80;99.90;;;;;;5075895;28;20216;-59
2022/06/12 04:36:43;;;;;;;6.90;3.13;;;16.90;99.90;;;;;;5075642;28;20282;-60
2022/06/12 04:39:13;;;;;;;2.97;2.67;;;17.00;99.90;;;;;;5075376;28;20212;-60
2022/06/12 04:41:39;;;;;;;3.85;2.83;;;17.10;99.90;;;;;;5074350;28;20692;-60
2022/06/12 04:44:08;;;;;;;5.30;2.90;;;17.20;99.90;;;;;;5073633;28;20676;-60
2022/06/12 04:46:37;;;;;;;5.80;2.58;;;17.50;99.90;;;;;;5073938;28;20221;-60
2022/06/12 04:49:04;;;;;;;3.92;2.13;;;18.40;99.90;;;;;;5073681;28;20696;-60
2022/06/12 04:51:32;;;;;;;3.25;2.50;;;19.70;99.90;;;;;;5073735;28;20699;-60
2022/06/12 04:54:01;;;;;;;4.55;2.25;;;21.20;99.90;;;;;;5073673;28;20193;-61
2022/06/12 04:56:30;;;;;;;4.63;2.40;;;22.70;99.90;;;;;;5073858;28;20232;-62
2022/06/12 04:58:57;;;;;;;2.53;2.20;;;23.90;99.90;;;;;;5073733;28;20205;-61
2022/06/12 05:01:25;;;;;;;3.80;2.15;;;25.00;99.90;;;;;;5073527;28;20266;-60
2022/06/12 05:03:52;;;;;;;2.70;2.03;;;26.00;99.90;;;;;;5073319;28;20212;-60
2022/06/12 05:06:19;;;;;;;3.35;1.98;;;26.90;99.90;;;;;;5073747;28;20239;-61
2022/06/12 05:08:47;;;;;;;3.75;2.30;;;27.60;99.90;;;;;;5074070;28;20574;-62
2022/06/12 05:11:15;;;;;;;3.28;2.05;;;28.30;99.90;;;;;;5072945;28;20664;-61
2022/06/12 05:13:42;;;;;;;3.63;1.95;;;28.90;97.20;;;;;;5072918;28;20239;-61
2022/06/12 05:16:17;;;;;;;3.60;2.38;;;29.30;95.20;;;;;;5073334;28;20726;-62
2022/06/12 05:18:43;;;;;;;3.92;2.65;;;29.60;93.90;;;;;;5073536;28;20204;-62
2022/06/12 05:21:10;;;;;;;4.90;2.22;;;29.90;92.50;;;;;;5073540;28;20225;-63
2022/06/12 05:23:37;;;;;;;4.32;2.63;;;30.10;91.50;;;;;;5073717;28;20694;-63
2022/06/12 05:26:06;;;;;;;3.53;2.20;;;30.90;90.10;;;;;;5073690;28;20319;-62
2022/06/12 05:28:34;;;;;;;4.93;2.50;;;31.50;85.30;;;;;;5073382;28;20205;-62
2022/06/12 05:31:01;;;;;;;4.35;2.00;;;31.40;83.60;;;;;;5073249;28;20211;-62
2022/06/12 05:33:28;;;;;;;5.45;3.45;;;32.10;81.40;;;;;;5073691;28;20205;-61
2022/06/12 05:35:54;;;;;;;7.38;2.55;;;33.10;78.10;;;;;;5073498;28;20235;-63
2022/06/12 05:38:21;;;;;;;4.82;3.20;;;32.70;77.20;;;;;;5074191;28;20205;-61
2022/06/12 05:40:48;;;;;;;5.13;2.30;;;32.60;77.50;;;;;;5073829;28;20205;-63
2022/06/12 05:43:15;;;;;;;4.18;2.03;;;33.10;74.90;;;;;;5072954;28;20232;-62
2022/06/12 05:45:43;;;;;;;3.45;1.95;;;33.80;72.60;;;;;;5073068;28;20221;-62
2022/06/12 05:48:13;;;;;;;3.92;2.00;;;34.40;70.60;;;;;;5073052;28;20227;-62
2022/06/12 05:50:48;;;;;;;5.68;2.17;;;35.00;68.40;;;;;;5072835;28;20204;-62
2022/06/12 05:53:16;;;;;;;6.07;2.33;;;35.80;65.50;;;;;;5072607;28;20208;-62
2022/06/12 05:55:43;;;;;;;3.25;2.17;;;36.40;62.70;;;;;;5072541;28;20726;-62
2022/06/12 05:58:10;;;;;;;3.00;2.20;;;36.50;61.30;;;;;;5072767;28;20219;-62
2022/06/12 06:00:37;;;;;;;4.53;2.08;;;36.80;60.70;;;;;;5072552;28;20291;-62
2022/06/12 06:03:05;;;;;;;7.18;2.22;;;37.10;58.90;;;;;;5072329;28;20511;-62
2022/06/12 06:05:32;;;;;;;6.55;2.47;;;36.10;60.80;;;;;;5072297;28;20328;-62
2022/06/12 06:07:59;;;;;;;3.20;1.88;;;36.20;61.10;;;;;;5072986;28;20563;-62
2022/06/12 06:10:27;;;;;;;2.88;2.08;;;35.00;62.80;;;;;;5072782;28;20274;-62
2022/06/12 06:12:54;;;;;;;5.43;2.00;;;33.30;67.00;;;;;;5073043;28;20210;-61
2022/06/12 06:15:22;;;;;;;3.22;2.00;;;32.50;69.50;;;;;;5072368;28;20212;-62
2022/06/12 06:17:49;;;;;;;3.72;2.25;;;31.80;71.30;;;;;;5072839;28;20201;-62
2022/06/12 06:20:21;;;;;;;4.97;2.17;;;31.40;72.60;;;;;;5072363;28;20205;-62
2022/06/12 06:22:48;;;;;;;6.15;2.47;;;31.40;72.80;;;;;;5072073;28;20217;-62
2022/06/12 06:25:15;;;;;;;3.17;2.30;;;30.80;73.80;;;;;;5072421;28;20205;-62
2022/06/12 06:27:42;;;;;;;7.78;2.42;;;30.20;75.80;;;;;;5072432;28;20201;-61
2022/06/12 06:30:11;;;;;;;4.03;2.42;;;30.20;76.90;;;;;;5073058;28;20205;-63
2022/06/12 06:32:38;;;;;;;6.32;3.00;;;30.90;75.30;;;;;;5072853;28;20672;-63
2022/06/12 06:35:07;;;;;;;3.33;2.25;;;31.50;75.20;;;;;;5073326;28;20209;-62
2022/06/12 06:37:35;;;;;;;3.13;2.15;;;33.20;70.50;;;;;;5074776;28;20271;-63
2022/06/12 06:40:03;;;;;;;4.15;2.30;;;35.10;65.10;;;;;;5074279;28;20209;-63
2022/06/12 06:42:30;;;;;;;3.97;2.67;;;34.80;64.30;;;;;;5074415;28;20625;-63
2022/06/12 06:47:42;;;;;;;2.90;2.17;;;35.00;62.30;;;;;;5075510;28;20242;-63
2022/06/12 06:50:11;;;;;;;4.55;2.28;;;34.40;64.40;;;;;;5075960;28;20215;-63
2022/06/12 06:52:39;;;;;;;5.75;2.70;;;35.70;62.40;;;;;;5077025;28;20681;-62
2022/06/12 06:55:07;;;;;;;4.28;2.20;;;37.40;57.90;;;;;;5077037;28;20209;-61
2022/06/12 06:57:36;;;;;;;2.92;1.98;;;38.20;55.40;;;;;;5077280;28;20229;-61
2022/06/12 07:00:05;;;;;;;2.88;2.42;;;39.10;54.00;;;;;;5076362;28;20257;-62
2022/06/12 07:02:32;;;;;;;6.65;2.20;;;40.00;52.40;;;;;;5075810;28;20891;-62
2022/06/12 07:04:59;;;;;;;3.97;2.30;;;40.30;51.40;;;;;;5075632;28;20205;-62
2022/06/12 07:07:25;;;;;;;5.07;3.15;;;39.80;51.80;;;;;;5076605;28;20286;-62
2022/06/12 07:09:53;;;;;;;4.25;2.20;;;39.60;52.60;;;;;;5076420;28;20200;-62
2022/06/12 07:12:21;;;;;;;4.88;2.20;;;40.60;50.30;;;;;;5076928;28;20204;-62
2022/06/12 07:14:48;;;;;;;5.40;2.00;;;40.20;50.10;;;;;;5076584;28;20590;-61
2022/06/12 07:17:15;;;;;;;2.88;2.08;;;39.50;50.60;;;;;;5076649;28;20221;-61
2022/06/12 07:19:41;;;;;;;4.68;2.10;;;37.80;53.10;;;;;;5076061;28;20205;-63
2022/06/12 07:22:08;;;;;;;3.00;2.20;;;36.80;54.80;;;;;;5075130;28;20224;-62
2022/06/12 07:24:35;;;;;;;7.25;2.20;;;36.70;55.30;;;;;;5075566;28;20266;-63
2022/06/12 07:27:04;;;;;;;5.57;1.90;;;36.80;54.80;;;;;;5076071;28;20274;-61
2022/06/12 07:29:31;;;;;;;4.05;2.20;;;36.00;56.40;;;;;;5075416;28;20270;-62
2022/06/12 07:31:59;;;;;;;3.40;2.35;;;36.50;55.80;;;;;;5075477;28;20231;-63
2022/06/12 07:34:26;;;;;;;3.13;2.28;;;36.40;56.10;;;;;;5075184;28;20209;-63
2022/06/12 07:36:56;;;;;;;5.63;2.25;;;36.60;55.80;;;;;;5075205;28;20225;-63
2022/06/12 07:39:25;;;;;;;3.20;1.77;;;37.70;54.40;;;;;;5075867;28;20208;-62
2022/06/12 07:41:53;;;;;;;3.10;1.92;;;39.30;50.50;;;;;;5074968;28;20208;-62
2022/06/12 07:44:25;;;;;;;4.05;2.00;;;40.70;49.00;;;;;;5075712;28;20208;-63
2022/06/12 07:46:53;;;;;;;5.72;2.10;;;42.00;46.70;;;;;;5075570;28;20247;-63
2022/06/12 07:49:21;;;;;;;3.10;2.65;;;43.20;44.30;;;;;;5075271;28;20211;-63
2022/06/12 07:51:49;;;;;;;4.63;1.90;;;44.10;42.20;;;;;;5075280;28;20744;-63
2022/06/12 07:54:16;;;;;;;4.32;1.92;;;44.60;40.40;;;;;;5074307;28;20645;-62
2022/06/12 07:56:43;;;;;;;2.58;1.85;;;45.20;40.00;;;;;;5075324;28;20573;-62
2022/06/12 07:59:10;;;;;;;4.40;2.85;;;45.90;39.40;;;;;;5075671;28;20579;-63
2022/06/12 08:01:39;;;;;;;3.42;1.88;;;46.10;39.60;;;;;;5075183;28;20220;-63
2022/06/12 08:04:07;;;;;;;3.75;1.98;;;46.30;38.20;;;;;;5074617;28;20204;-62
2022/06/12 08:06:34;;;;;;;4.05;2.28;;;45.80;38.40;;;;;;5074042;28;20236;-63
2022/06/12 08:09:02;;;;;;;3.55;1.90;;;45.70;38.30;;;;;;5074612;28;20211;-63
2022/06/12 08:11:29;;;;;;;4.25;2.67;;;46.00;38.00;;;;;;5075656;28;20231;-64
2022/06/12 08:13:56;;;;;;;7.25;2.95;;;46.50;38.20;;;;;;5074193;28;20668;-63
2022/06/12 08:16:23;;;;;;;6.10;3.08;;;46.90;37.60;;;;;;5074596;28;20224;-62
2022/06/12 08:18:51;;;;;;;3.35;2.50;;;47.10;36.90;;;;;;5074928;28;20204;-62
2022/06/12 08:21:19;;;;;;;3.70;1.88;;;47.20;36.80;;;;;;5074302;28;20208;-62
2022/06/12 08:23:47;;;;;;;4.65;1.75;;;47.20;36.40;;;;;;5073707;28;20236;-62
2022/06/12 08:26:18;;;;;;;3.47;1.65;;;47.30;36.70;;;;;;5074006;28;20224;-62
2022/06/12 08:28:48;;;;;;;3.83;1.90;;;46.60;37.00;;;;;;5074384;28;20205;-62
2022/06/12 08:31:18;;;;;;;3.13;1.85;;;45.00;38.80;;;;;;5074021;28;20212;-62
2022/06/12 08:33:47;;;;;;;4.03;2.10;;;42.90;40.70;;;;;;5075415;28;20216;-62
2022/06/12 08:36:17;;;;;;;4.95;1.70;;;41.00;42.70;;;;;;5075672;28;20231;-62
2022/06/12 08:38:44;;;;;;;3.20;2.10;;;40.30;43.90;;;;;;5075272;28;20285;-63
2022/06/12 08:41:18;;;;;;;5.30;2.22;;;40.90;42.90;;;;;;5073912;28;20720;-62
2022/06/12 08:43:54;;;;;;;5.45;2.83;;;41.50;42.50;;;;;;5073706;28;20631;-62
2022/06/12 08:46:25;;;;;;;3.42;2.17;;;42.00;42.90;;;;;;5073788;28;20232;-61
2022/06/12 08:48:56;;;;;;;3.83;2.15;;;42.00;42.40;;;;;;5073635;28;20200;-61
2022/06/12 08:51:28;;;;;;;3.25;2.38;;;41.10;43.00;;;;;;5074332;28;20669;-63
2022/06/12 08:53:59;;;;;;;5.07;3.58;;;40.40;43.80;;;;;;5073779;28;20220;-60
2022/06/12 08:56:32;;;;;;;4.97;3.78;;;39.30;45.00;;;;;;5074225;28;20367;-61
2022/06/12 08:59:05;;;;;;;4.65;2.08;;;38.20;46.20;;;;;;5073499;28;20205;-61
2022/06/12 09:01:32;;;;;;;4.10;1.95;;;37.00;47.20;;;;;;5074074;28;20620;-61
2022/06/12 09:03:59;;;;;;;3.92;2.58;;;35.30;49.00;;;;;;5073637;28;20229;-61
2022/06/12 09:06:37;;;;;;;3.65;2.17;;;33.20;52.50;;;;;;5074491;28;20245;-61
2022/06/12 09:09:15;;;;;;;7.80;2.53;;;31.60;56.20;;;;;;5074100;28;20211;-59
2022/06/12 09:11:47;;;;;;;7.32;2.30;;;30.10;57.70;;;;;;5073681;28;20650;-60
2022/06/12 09:14:39;;;;;;;5.45;2.22;;;29.50;58.30;;;;;;5074582;28;20236;-61
2022/06/12 09:17:17;;;;;;;3.25;2.20;;;29.20;59.80;;;;;;5072839;28;20225;-61
2022/06/12 09:19:54;;;;;;;4.07;1.80;;;29.00;60.30;;;;;;5072959;28;20209;-60
2022/06/12 09:22:27;;;;;;;3.63;2.15;;;29.00;60.10;;;;;;5073466;28;20212;-60
2022/06/12 09:25:01;;;;;;;5.80;3.00;;;28.70;62.30;;;;;;5073219;28;20205;-60
2022/06/12 09:27:38;;;;;;;5.00;2.03;;;28.60;62.90;;;;;;5073027;28;20235;-61
2022/06/12 09:30:10;;;;;;;5.20;1.80;;;28.60;62.80;;;;;;5073152;28;20205;-61
2022/06/12 09:32:49;;;;;;;4.63;1.98;;;28.60;62.80;;;;;;5073354;28;20200;-61
2022/06/12 09:35:27;;;;;;;3.67;1.83;;;28.30;64.00;;;;;;5072533;28;20216;-60
2022/06/12 09:38:22;;;;;;;3.60;1.90;;;28.10;63.80;;;;;;5073301;28;20577;-61
2022/06/12 09:41:08;;;;;;;4.47;2.10;;;28.10;63.80;;;;;;5072567;28;20205;-61
2022/06/12 09:43:40;;;;;;;3.58;1.80;;;28.20;63.20;;;;;;5072380;28;20649;-61
2022/06/12 09:46:17;;;;;;;4.90;2.17;;;28.10;63.00;;;;;;5072433;28;20323;-60
2022/06/12 09:48:56;;;;;;;4.97;1.70;;;28.20;63.70;;;;;;5072789;28;20641;-61
2022/06/12 09:51:34;;;;;;;4.00;2.40;;;28.30;63.50;;;;;;5074261;28;20684;-61
2022/06/12 09:54:30;;;;;;;3.28;1.92;;;28.40;64.00;;;;;;5073702;28;20216;-61
2022/06/12 09:57:02;;;;;;;5.28;2.10;;;28.50;63.80;;;;;;5071576;28;20270;-61
2022/06/12 09:59:35;;;;;;;3.03;1.92;;;28.50;63.70;;;;;;5074174;28;20201;-60
2022/06/12 10:02:09;;;;;;;3.88;1.83;;;28.60;64.20;;;;;;5075097;28;20213;-61
2022/06/12 10:04:43;;;;;;;4.20;1.83;;;28.30;64.50;;;;;;5074112;28;20240;-61
2022/06/12 10:07:15;;;;;;;4.50;1.90;;;28.00;65.00;;;;;;5073413;28;20330;-60
2022/06/12 10:09:48;;;;;;;4.55;1.70;;;27.70;64.50;;;;;;5073052;28;20673;-61
2022/06/12 10:12:18;;;;;;;2.50;1.50;;;27.70;61.90;;;;;;5073475;28;20630;-62
2022/06/12 10:14:47;;;;;;;3.35;1.60;;;27.90;62.50;;;;;;5072647;28;20558;-61
2022/06/12 10:17:19;;;;;;;2.70;1.50;;;28.00;60.80;;;;;;5074789;28;20232;-61
2022/06/12 10:19:50;;;;;;;4.25;1.85;;;28.10;61.80;;;;;;5077241;28;20214;-61
2022/06/12 10:22:22;;;;;;;6.28;1.90;;;28.10;62.00;;;;;;5076140;28;20250;-61
2022/06/12 10:24:50;;;;;;;4.25;1.73;;;28.00;62.90;;;;;;5076545;28;20212;-61
2022/06/12 10:27:19;;;;;;;4.32;2.10;;;27.90;62.80;;;;;;5075920;28;20706;-61
2022/06/12 10:29:51;;;;;;;4.18;1.70;;;27.80;63.10;;;;;;5076887;28;20287;-61
2022/06/12 10:32:19;;;;;;;3.42;1.90;;;28.00;62.90;;;;;;5076393;28;20255;-60
2022/06/12 10:34:46;;;;;;;4.45;1.88;;;28.30;63.10;;;;;;5076151;28;20197;-60
2022/06/12 10:37:18;;;;;;;4.90;2.10;;;28.50;62.50;;;;;;5075722;28;20736;-60
2022/06/12 10:39:45;;;;;;;3.83;1.58;;;28.70;61.60;;;;;;5075857;28;20208;-61
2022/06/12 10:42:32;;;;;;;4.47;1.60;;;28.80;59.70;;;;;;5076651;28;20204;-61
2022/06/12 10:45:00;;;;;;;4.80;2.25;;;28.50;60.70;;;;;;5075820;28;20228;-61
2022/06/12 10:47:28;;;;;;;3.58;1.60;;;28.50;61.00;;;;;;5077086;28;20225;-61
2022/06/12 10:50:15;;;;;;;3.90;1.67;;;28.60;59.40;;;;;;5076425;28;20201;-61
2022/06/12 10:52:52;;;;;;;3.67;1.77;;;28.70;58.90;;;;;;5078559;28;20589;-61
2022/06/12 10:55:23;;;;;;;2.65;1.83;;;28.90;58.50;;;;;;5076728;28;20323;-61
2022/06/12 10:58:03;;;;;;;5.15;1.90;;;29.10;59.20;;;;;;5077948;28;20205;-61
2022/06/12 11:00:36;;;;;;;1.80;1.30;;;29.00;59.70;;;;;;5077745;28;20216;-60
2022/06/12 11:03:14;;;;;;;2.97;1.60;;;29.00;59.70;;;;;;5077511;28;20221;-61
2022/06/12 11:05:56;;;;;;;4.00;1.90;;;29.10;59.70;;;;;;5076664;28;20232;-61
2022/06/12 11:08:35;;;;;;;3.60;1.40;;;29.30;59.80;;;;;;5098266;22;20235;-61
2022/06/12 11:11:10;;;;;;;4.03;1.70;;;29.40;59.20;;;;;;5074168;28;20198;-61
2022/06/12 11:14:04;;;;;;;4.22;1.67;;;29.40;59.50;;;;;;5073702;28;20628;-61
2022/06/12 11:16:44;;;;;;;1.50;1.20;;;29.60;58.70;;;;;;5073475;28;20244;-61
2022/06/12 11:19:35;;;;;;;3.20;1.58;;;29.70;57.60;;;;;;5073885;28;20715;-61
2022/06/12 11:22:13;;;;;;;4.10;1.40;;;29.70;57.20;;;;;;5073738;28;20661;-62
2022/06/12 11:24:50;;;;;;;2.38;1.52;;;29.80;57.20;;;;;;5073310;28;20228;-61
2022/06/12 11:27:51;;;;;;;4.68;3.33;;;29.90;57.30;;;;;;5073722;28;20225;-61
2022/06/12 11:30:32;;;;;;;1.70;1.20;;;30.00;55.80;;;;;;5074311;28;20235;-61
2022/06/12 11:33:36;;;;;;;1.60;1.10;;;30.00;54.80;;;;;;5074202;28;20258;-61
2022/06/12 11:36:10;;;;;;;2.45;1.38;;;29.90;54.10;;;;;;5070774;28;20216;-62
2022/06/12 11:38:54;;;;;;;1.85;1.10;;;29.70;54.80;;;;;;5074303;28;20209;-61
2022/06/12 11:41:37;;;;;;;3.28;1.52;;;29.50;54.00;;;;;;5073421;28;20200;-61
2022/06/12 11:44:16;;;;;;;2.72;1.50;;;29.40;55.00;;;;;;5070256;28;20445;-65
2022/06/12 11:46:50;;;;;;;4.18;1.58;;;29.50;56.60;;;;;;5071810;28;20227;-59
2022/06/12 11:49:35;;;;;;;3.42;1.67;;;29.60;56.70;;;;;;5072246;28;20239;-62
2022/06/12 11:52:19;;;;;;;3.85;1.35;;;29.70;56.70;;;;;;5072113;28;20212;-61
2022/06/12 11:54:58;;;;;;;5.15;3.05;;;30.00;55.80;;;;;;5071929;28;20212;-64
2022/06/12 11:57:32;;;;;;;3.88;1.58;;;30.20;54.90;;;;;;5071852;28;20243;-62
2022/06/12 12:00:06;;;;;;;3.50;1.80;;;30.30;54.90;;;;;;5072020;28;20619;-62
2022/06/12 12:02:59;;;;;;;3.97;1.80;;;30.30;54.80;;;;;;5071917;28;20231;-64
2022/06/12 12:05:45;;;;;;;5.57;2.78;;;30.50;54.90;;;;;;5071368;28;20208;-64
2022/06/12 12:08:42;;;;;;;2.78;1.50;;;30.60;55.50;;;;;;5071773;28;20233;-63
2022/06/12 12:11:13;;;;;;;4.97;1.50;;;30.60;55.50;;;;;;5072099;28;20588;-63
2022/06/12 12:13:42;;;;;;;2.53;1.48;;;30.90;54.90;;;;;;5071587;28;20251;-63
2022/06/12 12:16:18;;;;;;;3.35;1.60;;;30.90;54.90;;;;;;5071613;28;20561;-64
2022/06/12 12:18:51;;;;;;;3.53;1.70;;;31.00;54.90;;;;;;5071635;28;20219;-65
2022/06/12 12:21:26;;;;;;;3.58;1.67;;;31.00;54.70;;;;;;5072001;28;20220;-62
2022/06/12 12:23:54;;;;;;;3.10;1.67;;;30.90;54.00;;;;;;5071926;28;20330;-66
2022/06/12 12:26:25;;;;;;;2.20;1.40;;;30.70;54.70;;;;;;5070962;28;20216;-65
2022/06/12 12:28:55;;;;;;;3.33;1.88;;;30.60;55.50;;;;;;5071837;28;20209;-64
2022/06/12 12:31:23;;;;;;;2.38;1.40;;;30.60;56.20;;;;;;5071603;28;20201;-65
2022/06/12 12:33:53;;;;;;;4.43;1.83;;;30.70;55.10;;;;;;5071426;28;20579;-62
2022/06/12 12:42:19;;;;;;;4.47;1.67;;;30.80;54.80;;;;;;5071599;28;20227;-60
2022/06/12 12:44:46;;;;;;;1.85;1.42;;;30.90;55.20;;;;;;5071535;28;20228;-61
2022/06/12 12:47:19;;;;;;;2.90;1.25;;;30.90;55.20;;;;;;5071141;28;20313;-62
2022/06/12 12:49:47;;;;;;;4.10;1.85;;;30.80;56.40;;;;;;5071693;28;20291;-63
2022/06/12 12:52:17;;;;;;;3.58;1.70;;;31.00;55.80;;;;;;5071351;28;20228;-61
2022/06/12 12:54:51;;;;;;;3.10;1.55;;;31.10;55.30;;;;;;5071387;28;20197;-62
2022/06/12 12:57:20;;;;;;;3.03;1.90;;;31.20;55.30;;;;;;5071027;28;20343;-62
2022/06/12 12:59:50;;;;;;;3.00;1.45;;;31.30;55.00;;;;;;5070957;28;20679;-63
2022/06/12 13:02:24;;;;;;;7.10;1.60;;;31.20;55.10;;;;;;5071110;28;20248;-62
2022/06/12 13:04:55;;;;;;;2.85;1.70;;;31.10;55.20;;;;;;5070836;28;20232;-62
2022/06/12 13:07:39;;;;;;;2.92;1.85;;;31.10;55.00;;;;;;5070979;28;20228;-62
2022/06/12 13:10:31;;;;;;;3.08;1.63;;;31.30;54.70;;;;;;5070930;28;20239;-63
2022/06/12 13:13:30;;;;;;;4.85;2.15;;;31.40;55.20;;;;;;5063529;28;20639;-63
2022/06/12 13:16:01;;;;;;;3.47;1.73;;;31.50;55.10;;;;;;5070619;28;20209;-63
2022/06/12 13:18:51;;;;;;;2.88;1.83;;;31.60;54.90;;;;;;5070575;28;20737;-63
2022/06/12 13:21:24;;;;;;;2.45;1.70;;;31.50;56.10;;;;;;5070768;28;20213;-61
2022/06/12 13:24:03;;;;;;;5.88;1.80;;;31.60;55.40;;;;;;5070766;28;20224;-63
2022/06/12 13:26:34;;;;;;;4.60;1.60;;;31.60;56.20;;;;;;5070736;28;20737;-60
2022/06/12 13:29:04;;;;;;;3.30;1.52;;;31.60;56.80;;;;;;5072063;28;20687;-60